sensor_id;sensor_type;location;lat;lon;timestamp;temperature;humidity
12504;DHT22;6316;48.118;-1.690;2022-10-04T00:03:27;18.20;99.90
12504;DHT22;6316;48.118;-1.690;2022-10-04T00:05:57;18.20;99.90
12504;DHT22;6316;48.118;-1.690;2022-10-04T00:11:22;18.20;99.90
12504;DHT22;6316;48.118;-1.690;2022-10-04T00:13:53;18.20;99.90
12504;DHT22;6316;48.118;-1.690;2022-10-04T00:16:29;18.10;99.90
12504;DHT22;6316;48.118;-1.690;2022-10-04T00:34:47;18.10;99.90
12504;DHT22;6316;48.118;-1.690;2022-10-04T00:37:18;18.10;99.90
12504;DHT22;6316;48.118;-1.690;2022-10-04T00:39:46;18.00;99.90
12504;DHT22;6316;48.118;-1.690;2022-10-04T00:45:01;18.00;99.90
12504;DHT22;6316;48.118;-1.690;2022-10-04T00:47:38;18.00;99.90
12504;DHT22;6316;48.118;-1.690;2022-10-04T00:50:15;18.00;99.90
12504;DHT22;6316;48.118;-1.690;2022-10-04T00:52:50;18.00;99.90
12504;DHT22;6316;48.118;-1.690;2022-10-04T00:55:53;17.90;99.90
12504;DHT22;6316;48.118;-1.690;2022-10-04T00:58:25;17.90;99.90
12504;DHT22;6316;48.118;-1.690;2022-10-04T01:00:53;17.80;99.90
12504;DHT22;6316;48.118;-1.690;2022-10-04T01:03:26;17.80;99.90
12504;DHT22;6316;48.118;-1.690;2022-10-04T01:05:56;17.70;99.90
12504;DHT22;6316;48.118;-1.690;2022-10-04T01:11:03;17.60;99.90
12504;DHT22;6316;48.118;-1.690;2022-10-04T01:13:38;17.60;99.90
12504;DHT22;6316;48.118;-1.690;2022-10-04T01:16:27;17.60;99.90
12504;DHT22;6316;48.118;-1.690;2022-10-04T01:18:53;17.60;99.90
12504;DHT22;6316;48.118;-1.690;2022-10-04T01:23:45;17.60;99.90
12504;DHT22;6316;48.118;-1.690;2022-10-04T01:31:42;17.60;99.90
12504;DHT22;6316;48.118;-1.690;2022-10-04T01:34:11;17.60;99.90
12504;DHT22;6316;48.118;-1.690;2022-10-04T01:36:38;17.60;99.90
12504;DHT22;6316;48.118;-1.690;2022-10-04T01:39:04;17.60;99.90
12504;DHT22;6316;48.118;-1.690;2022-10-04T01:44:37;17.60;99.90
12504;DHT22;6316;48.118;-1.690;2022-10-04T01:47:43;17.60;99.90
12504;DHT22;6316;48.118;-1.690;2022-10-04T01:50:07;17.60;99.90
12504;DHT22;6316;48.118;-1.690;2022-10-04T01:52:39;17.60;99.90
12504;DHT22;6316;48.118;-1.690;2022-10-04T01:55:18;17.50;99.90
12504;DHT22;6316;48.118;-1.690;2022-10-04T01:57:48;17.50;99.90
12504;DHT22;6316;48.118;-1.690;2022-10-04T02:00:19;17.50;99.90
12504;DHT22;6316;48.118;-1.690;2022-10-04T02:02:50;17.40;99.90
12504;DHT22;6316;48.118;-1.690;2022-10-04T02:05:25;17.40;99.90
12504;DHT22;6316;48.118;-1.690;2022-10-04T02:07:53;17.40;99.90
12504;DHT22;6316;48.118;-1.690;2022-10-04T02:10:20;17.30;99.90
12504;DHT22;6316;48.118;-1.690;2022-10-04T02:12:50;17.30;99.90
12504;DHT22;6316;48.118;-1.690;2022-10-04T02:15:18;17.30;99.90
12504;DHT22;6316;48.118;-1.690;2022-10-04T02:17:45;17.20;99.90
12504;DHT22;6316;48.118;-1.690;2022-10-04T02:20:18;17.20;99.90
12504;DHT22;6316;48.118;-1.690;2022-10-04T02:22:47;17.20;99.90
12504;DHT22;6316;48.118;-1.690;2022-10-04T02:25:14;17.20;99.90
12504;DHT22;6316;48.118;-1.690;2022-10-04T02:27:42;17.20;99.90
12504;DHT22;6316;48.118;-1.690;2022-10-04T02:30:10;17.10;99.90
12504;DHT22;6316;48.118;-1.690;2022-10-04T02:32:40;17.10;99.90
12504;DHT22;6316;48.118;-1.690;2022-10-04T02:35:36;17.10;99.90
12504;DHT22;6316;48.118;-1.690;2022-10-04T02:40:44;17.00;99.90
12504;DHT22;6316;48.118;-1.690;2022-10-04T02:43:19;17.00;99.90
12504;DHT22;6316;48.118;-1.690;2022-10-04T02:49:01;16.90;99.90
12504;DHT22;6316;48.118;-1.690;2022-10-04T02:54:09;16.90;99.90
12504;DHT22;6316;48.118;-1.690;2022-10-04T02:56:41;16.90;99.90
12504;DHT22;6316;48.118;-1.690;2022-10-04T02:59:10;16.90;99.90
12504;DHT22;6316;48.118;-1.690;2022-10-04T03:04:20;16.90;99.90
12504;DHT22;6316;48.118;-1.690;2022-10-04T03:06:48;16.90;99.90
12504;DHT22;6316;48.118;-1.690;2022-10-04T03:09:15;16.90;99.90
12504;DHT22;6316;48.118;-1.690;2022-10-04T03:11:43;16.90;99.90
12504;DHT22;6316;48.118;-1.690;2022-10-04T03:14:23;16.90;99.90
12504;DHT22;6316;48.118;-1.690;2022-10-04T03:16:57;16.90;99.90
12504;DHT22;6316;48.118;-1.690;2022-10-04T03:19:26;16.90;99.90
12504;DHT22;6316;48.118;-1.690;2022-10-04T03:21:55;16.90;99.90
12504;DHT22;6316;48.118;-1.690;2022-10-04T03:24:30;16.90;99.90
12504;DHT22;6316;48.118;-1.690;2022-10-04T03:26:58;16.90;99.90
12504;DHT22;6316;48.118;-1.690;2022-10-04T03:29:27;16.90;99.90
12504;DHT22;6316;48.118;-1.690;2022-10-04T03:31:55;16.90;99.90
12504;DHT22;6316;48.118;-1.690;2022-10-04T03:34:25;16.90;99.90
12504;DHT22;6316;48.118;-1.690;2022-10-04T03:36:52;16.90;99.90
12504;DHT22;6316;48.118;-1.690;2022-10-04T03:39:44;16.90;99.90
12504;DHT22;6316;48.118;-1.690;2022-10-04T03:42:25;16.90;99.90
12504;DHT22;6316;48.118;-1.690;2022-10-04T03:45:00;16.90;99.90
12504;DHT22;6316;48.118;-1.690;2022-10-04T03:47:26;16.90;99.90
12504;DHT22;6316;48.118;-1.690;2022-10-04T03:49:54;16.90;99.90
12504;DHT22;6316;48.118;-1.690;2022-10-04T03:52:25;16.90;99.90
12504;DHT22;6316;48.118;-1.690;2022-10-04T03:54:53;16.90;99.90
12504;DHT22;6316;48.118;-1.690;2022-10-04T03:57:20;16.90;99.90
12504;DHT22;6316;48.118;-1.690;2022-10-04T03:59:46;16.90;99.90
12504;DHT22;6316;48.118;-1.690;2022-10-04T04:02:32;16.90;99.90
12504;DHT22;6316;48.118;-1.690;2022-10-04T04:05:19;16.90;99.90
12504;DHT22;6316;48.118;-1.690;2022-10-04T04:08:05;16.90;99.90
12504;DHT22;6316;48.118;-1.690;2022-10-04T04:10:45;16.90;99.90
12504;DHT22;6316;48.118;-1.690;2022-10-04T04:13:37;16.90;99.90
12504;DHT22;6316;48.118;-1.690;2022-10-04T04:16:07;16.90;99.90
12504;DHT22;6316;48.118;-1.690;2022-10-04T04:18:39;16.80;99.90
12504;DHT22;6316;48.118;-1.690;2022-10-04T04:21:06;16.90;99.90
12504;DHT22;6316;48.118;-1.690;2022-10-04T04:23:43;16.90;99.90
12504;DHT22;6316;48.118;-1.690;2022-10-04T04:29:14;16.80;99.90
12504;DHT22;6316;48.118;-1.690;2022-10-04T04:31:45;16.80;99.90
12504;DHT22;6316;48.118;-1.690;2022-10-04T04:36:41;16.80;99.90
12504;DHT22;6316;48.118;-1.690;2022-10-04T04:39:19;16.80;99.90
12504;DHT22;6316;48.118;-1.690;2022-10-04T04:44:39;16.80;99.90
12504;DHT22;6316;48.118;-1.690;2022-10-04T04:47:36;16.80;99.90
12504;DHT22;6316;48.118;-1.690;2022-10-04T04:50:11;16.80;99.90
12504;DHT22;6316;48.118;-1.690;2022-10-04T04:52:38;16.80;99.90
12504;DHT22;6316;48.118;-1.690;2022-10-04T04:55:05;16.80;99.90
12504;DHT22;6316;48.118;-1.690;2022-10-04T04:57:32;16.80;99.90
12504;DHT22;6316;48.118;-1.690;2022-10-04T05:00:00;16.80;99.90
12504;DHT22;6316;48.118;-1.690;2022-10-04T05:02:32;16.70;99.90
12504;DHT22;6316;48.118;-1.690;2022-10-04T05:08:02;16.70;99.90
12504;DHT22;6316;48.118;-1.690;2022-10-04T05:10:32;16.60;99.90
12504;DHT22;6316;48.118;-1.690;2022-10-04T05:13:02;16.60;99.90
12504;DHT22;6316;48.118;-1.690;2022-10-04T05:15:34;16.60;99.90
12504;DHT22;6316;48.118;-1.690;2022-10-04T05:18:01;16.60;99.90
12504;DHT22;6316;48.118;-1.690;2022-10-04T05:20:28;16.60;99.90
12504;DHT22;6316;48.118;-1.690;2022-10-04T05:22:57;16.50;99.90
12504;DHT22;6316;48.118;-1.690;2022-10-04T05:25:30;16.50;99.90
12504;DHT22;6316;48.118;-1.690;2022-10-04T05:27:57;16.50;99.90
12504;DHT22;6316;48.118;-1.690;2022-10-04T05:30:48;16.40;99.90
12504;DHT22;6316;48.118;-1.690;2022-10-04T05:33:25;16.40;99.90
12504;DHT22;6316;48.118;-1.690;2022-10-04T05:38:39;16.40;99.90
12504;DHT22;6316;48.118;-1.690;2022-10-04T05:43:54;16.20;99.90
12504;DHT22;6316;48.118;-1.690;2022-10-04T05:46:34;16.30;99.90
12504;DHT22;6316;48.118;-1.690;2022-10-04T05:49:13;16.20;99.90
12504;DHT22;6316;48.118;-1.690;2022-10-04T05:52:12;16.20;99.90
12504;DHT22;6316;48.118;-1.690;2022-10-04T05:54:38;16.20;99.90
12504;DHT22;6316;48.118;-1.690;2022-10-04T06:08:06;16.10;99.90
12504;DHT22;6316;48.118;-1.690;2022-10-04T06:10:46;16.00;99.90
12504;DHT22;6316;48.118;-1.690;2022-10-04T06:18:46;16.00;99.90
12504;DHT22;6316;48.118;-1.690;2022-10-04T06:21:24;16.00;99.90
12504;DHT22;6316;48.118;-1.690;2022-10-04T06:24:14;16.00;99.90
12504;DHT22;6316;48.118;-1.690;2022-10-04T06:26:45;16.00;99.90
12504;DHT22;6316;48.118;-1.690;2022-10-04T06:29:19;16.00;99.90
12504;DHT22;6316;48.118;-1.690;2022-10-04T06:32:14;16.10;99.90
12504;DHT22;6316;48.118;-1.690;2022-10-04T06:40:59;16.10;99.90
12504;DHT22;6316;48.118;-1.690;2022-10-04T06:49:41;16.10;99.90
12504;DHT22;6316;48.118;-1.690;2022-10-04T07:07:37;16.00;99.90
12504;DHT22;6316;48.118;-1.690;2022-10-04T07:09:59;16.00;99.90
12504;DHT22;6316;48.118;-1.690;2022-10-04T07:12:30;16.10;99.90
12504;DHT22;6316;48.118;-1.690;2022-10-04T07:15:00;16.10;99.90
12504;DHT22;6316;48.118;-1.690;2022-10-04T07:17:37;16.10;99.90
12504;DHT22;6316;48.118;-1.690;2022-10-04T07:20:05;16.10;99.90
12504;DHT22;6316;48.118;-1.690;2022-10-04T07:22:45;16.20;99.90
12504;DHT22;6316;48.118;-1.690;2022-10-04T07:25:26;16.20;99.90
12504;DHT22;6316;48.118;-1.690;2022-10-04T07:28:03;16.20;99.90
12504;DHT22;6316;48.118;-1.690;2022-10-04T07:30:53;16.30;99.90
12504;DHT22;6316;48.118;-1.690;2022-10-04T07:33:24;16.30;99.90
12504;DHT22;6316;48.118;-1.690;2022-10-04T07:35:59;16.30;99.90
12504;DHT22;6316;48.118;-1.690;2022-10-04T07:38:30;16.40;99.90
12504;DHT22;6316;48.118;-1.690;2022-10-04T07:48:45;16.50;99.90
12504;DHT22;6316;48.118;-1.690;2022-10-04T07:51:40;16.60;99.90
12504;DHT22;6316;48.118;-1.690;2022-10-04T07:56:59;16.70;99.90
12504;DHT22;6316;48.118;-1.690;2022-10-04T08:10:45;17.00;99.90
12504;DHT22;6316;48.118;-1.690;2022-10-04T08:15:50;17.10;99.90
12504;DHT22;6316;48.118;-1.690;2022-10-04T08:21:06;17.30;99.90
12504;DHT22;6316;48.118;-1.690;2022-10-04T08:35:02;17.70;99.90
12504;DHT22;6316;48.118;-1.690;2022-10-04T08:53:45;18.10;99.90
12504;DHT22;6316;48.118;-1.690;2022-10-04T08:56:35;18.10;99.90
12504;DHT22;6316;48.118;-1.690;2022-10-04T09:16:44;18.20;99.90
12504;DHT22;6316;48.118;-1.690;2022-10-04T09:19:42;18.20;99.90
12504;DHT22;6316;48.118;-1.690;2022-10-04T09:28:11;18.10;99.90
12504;DHT22;6316;48.118;-1.690;2022-10-04T09:36:05;18.30;99.90
12504;DHT22;6316;48.118;-1.690;2022-10-04T09:41:56;18.50;99.90
12504;DHT22;6316;48.118;-1.690;2022-10-04T09:47:38;18.80;99.90
12504;DHT22;6316;48.118;-1.690;2022-10-04T09:55:54;19.00;99.90
12504;DHT22;6316;48.118;-1.690;2022-10-04T09:58:34;19.10;99.90
12504;DHT22;6316;48.118;-1.690;2022-10-04T10:01:13;19.20;99.90
12504;DHT22;6316;48.118;-1.690;2022-10-04T10:28:02;19.30;99.90
12504;DHT22;6316;48.118;-1.690;2022-10-04T10:36:22;19.40;99.90
12504;DHT22;6316;48.118;-1.690;2022-10-04T10:39:21;19.50;99.90
12504;DHT22;6316;48.118;-1.690;2022-10-04T10:44:32;19.50;99.90
12504;DHT22;6316;48.118;-1.690;2022-10-04T10:47:29;19.50;99.90
12504;DHT22;6316;48.118;-1.690;2022-10-04T11:19:14;19.70;99.90
12504;DHT22;6316;48.118;-1.690;2022-10-04T11:28:02;19.60;99.90
12504;DHT22;6316;48.118;-1.690;2022-10-04T11:36:14;19.50;99.90
12504;DHT22;6316;48.118;-1.690;2022-10-04T11:39:01;19.40;99.90
12504;DHT22;6316;48.118;-1.690;2022-10-04T11:50:08;19.20;99.90
12504;DHT22;6316;48.118;-1.690;2022-10-04T11:56:07;19.30;99.90
12504;DHT22;6316;48.118;-1.690;2022-10-04T12:01:43;19.30;99.90
12504;DHT22;6316;48.118;-1.690;2022-10-04T12:10:22;19.20;99.90
12504;DHT22;6316;48.118;-1.690;2022-10-04T12:18:39;19.40;99.90
12504;DHT22;6316;48.118;-1.690;2022-10-04T12:23:46;19.40;99.90
12504;DHT22;6316;48.118;-1.690;2022-10-04T12:44:21;19.30;99.90
12504;DHT22;6316;48.118;-1.690;2022-10-04T12:52:11;19.30;99.90
12504;DHT22;6316;48.118;-1.690;2022-10-04T12:54:46;19.30;99.90
12504;DHT22;6316;48.118;-1.690;2022-10-04T12:57:39;19.20;99.90
12504;DHT22;6316;48.118;-1.690;2022-10-04T13:00:22;19.20;99.90
12504;DHT22;6316;48.118;-1.690;2022-10-04T13:11:21;19.10;99.90
12504;DHT22;6316;48.118;-1.690;2022-10-04T13:16:57;19.10;99.90
12504;DHT22;6316;48.118;-1.690;2022-10-04T13:19:29;19.00;99.90
12504;DHT22;6316;48.118;-1.690;2022-10-04T13:22:15;19.00;99.90
12504;DHT22;6316;48.118;-1.690;2022-10-04T13:30:03;19.00;99.90
12504;DHT22;6316;48.118;-1.690;2022-10-04T13:32:39;19.00;99.90
12504;DHT22;6316;48.118;-1.690;2022-10-04T13:35:27;19.10;99.90
12504;DHT22;6316;48.118;-1.690;2022-10-04T13:38:21;19.10;99.90
12504;DHT22;6316;48.118;-1.690;2022-10-04T13:44:11;19.30;99.90
12504;DHT22;6316;48.118;-1.690;2022-10-04T13:52:46;19.60;99.90
12504;DHT22;6316;48.118;-1.690;2022-10-04T13:55:47;19.70;99.90
12504;DHT22;6316;48.118;-1.690;2022-10-04T14:04:23;20.10;99.90
12504;DHT22;6316;48.118;-1.690;2022-10-04T14:18:20;20.10;99.90
12504;DHT22;6316;48.118;-1.690;2022-10-04T14:21:08;20.10;99.90
12504;DHT22;6316;48.118;-1.690;2022-10-04T14:37:34;19.90;99.90
12504;DHT22;6316;48.118;-1.690;2022-10-04T14:40:43;19.90;99.90
12504;DHT22;6316;48.118;-1.690;2022-10-04T14:46:10;20.00;99.90
12504;DHT22;6316;48.118;-1.690;2022-10-04T15:10:55;19.80;99.90
12504;DHT22;6316;48.118;-1.690;2022-10-04T15:13:51;19.80;99.90
12504;DHT22;6316;48.118;-1.690;2022-10-04T15:19:03;19.80;99.90
12504;DHT22;6316;48.118;-1.690;2022-10-04T15:22:13;19.80;99.90
12504;DHT22;6316;48.118;-1.690;2022-10-04T15:30:10;19.70;99.90
12504;DHT22;6316;48.118;-1.690;2022-10-04T15:41:25;19.60;99.90
12504;DHT22;6316;48.118;-1.690;2022-10-04T16:06:57;19.60;99.90
12504;DHT22;6316;48.118;-1.690;2022-10-04T16:09:41;19.60;99.90
12504;DHT22;6316;48.118;-1.690;2022-10-04T16:17:42;19.60;99.90
12504;DHT22;6316;48.118;-1.690;2022-10-04T16:23:25;19.50;99.90
12504;DHT22;6316;48.118;-1.690;2022-10-04T16:31:36;19.50;99.90
12504;DHT22;6316;48.118;-1.690;2022-10-04T16:42:56;19.40;99.90
12504;DHT22;6316;48.118;-1.690;2022-10-04T16:56:31;19.20;99.90
12504;DHT22;6316;48.118;-1.690;2022-10-04T17:04:42;19.20;99.90
12504;DHT22;6316;48.118;-1.690;2022-10-04T17:15:22;19.20;99.90
12504;DHT22;6316;48.118;-1.690;2022-10-04T17:20:54;19.10;99.90
12504;DHT22;6316;48.118;-1.690;2022-10-04T17:23:51;19.10;99.90
12504;DHT22;6316;48.118;-1.690;2022-10-04T17:48:59;18.90;99.90
12504;DHT22;6316;48.118;-1.690;2022-10-04T17:51:50;18.90;99.90
12504;DHT22;6316;48.118;-1.690;2022-10-04T18:00:09;18.80;99.90
12504;DHT22;6316;48.118;-1.690;2022-10-04T18:02:59;18.80;99.90
12504;DHT22;6316;48.118;-1.690;2022-10-04T18:05:42;18.80;99.90
12504;DHT22;6316;48.118;-1.690;2022-10-04T18:10:53;18.80;99.90
12504;DHT22;6316;48.118;-1.690;2022-10-04T18:13:42;18.80;99.90
12504;DHT22;6316;48.118;-1.690;2022-10-04T18:16:30;18.70;99.90
12504;DHT22;6316;48.118;-1.690;2022-10-04T18:22:16;18.70;99.90
12504;DHT22;6316;48.118;-1.690;2022-10-04T18:24:47;18.70;99.90
12504;DHT22;6316;48.118;-1.690;2022-10-04T18:27:31;18.70;99.90
12504;DHT22;6316;48.118;-1.690;2022-10-04T18:35:00;18.70;99.90
12504;DHT22;6316;48.118;-1.690;2022-10-04T18:37:37;18.70;99.90
12504;DHT22;6316;48.118;-1.690;2022-10-04T18:40:18;18.70;99.90
12504;DHT22;6316;48.118;-1.690;2022-10-04T18:43:28;18.60;99.90
12504;DHT22;6316;48.118;-1.690;2022-10-04T18:46:20;18.60;99.90
12504;DHT22;6316;48.118;-1.690;2022-10-04T18:48:58;18.60;99.90
12504;DHT22;6316;48.118;-1.690;2022-10-04T18:51:43;18.60;99.90
12504;DHT22;6316;48.118;-1.690;2022-10-04T18:57:23;18.60;99.90
12504;DHT22;6316;48.118;-1.690;2022-10-04T19:00:10;18.50;99.90
12504;DHT22;6316;48.118;-1.690;2022-10-04T19:03:44;18.50;99.90
12504;DHT22;6316;48.118;-1.690;2022-10-04T19:09:17;18.50;99.90
12504;DHT22;6316;48.118;-1.690;2022-10-04T19:17:00;18.40;99.90
12504;DHT22;6316;48.118;-1.690;2022-10-04T19:20:02;18.40;99.90
12504;DHT22;6316;48.118;-1.690;2022-10-04T19:30:30;18.40;99.90
12504;DHT22;6316;48.118;-1.690;2022-10-04T19:43:47;18.30;99.90
12504;DHT22;6316;48.118;-1.690;2022-10-04T19:52:30;18.30;99.90
12504;DHT22;6316;48.118;-1.690;2022-10-04T19:55:07;18.30;99.90
12504;DHT22;6316;48.118;-1.690;2022-10-04T19:57:37;18.20;99.90
12504;DHT22;6316;48.118;-1.690;2022-10-04T20:00:10;18.20;99.90
12504;DHT22;6316;48.118;-1.690;2022-10-04T20:02:39;18.20;99.90
12504;DHT22;6316;48.118;-1.690;2022-10-04T20:05:16;18.30;99.90
12504;DHT22;6316;48.118;-1.690;2022-10-04T20:07:49;18.20;99.90
12504;DHT22;6316;48.118;-1.690;2022-10-04T20:15:44;18.20;99.90
12504;DHT22;6316;48.118;-1.690;2022-10-04T20:26:08;18.20;99.90
12504;DHT22;6316;48.118;-1.690;2022-10-04T20:28:35;18.10;99.90
12504;DHT22;6316;48.118;-1.690;2022-10-04T20:31:06;18.20;99.90
12504;DHT22;6316;48.118;-1.690;2022-10-04T20:38:56;18.20;99.90
12504;DHT22;6316;48.118;-1.690;2022-10-04T20:46:24;18.20;99.90
12504;DHT22;6316;48.118;-1.690;2022-10-04T20:48:52;18.20;99.90
12504;DHT22;6316;48.118;-1.690;2022-10-04T20:51:19;18.20;99.90
12504;DHT22;6316;48.118;-1.690;2022-10-04T20:53:45;18.20;99.90
12504;DHT22;6316;48.118;-1.690;2022-10-04T20:58:53;18.20;99.90
12504;DHT22;6316;48.118;-1.690;2022-10-04T21:06:57;18.20;99.90
12504;DHT22;6316;48.118;-1.690;2022-10-04T21:09:23;18.20;99.90
12504;DHT22;6316;48.118;-1.690;2022-10-04T21:11:51;18.20;99.90
12504;DHT22;6316;48.118;-1.690;2022-10-04T21:16:51;18.20;99.90
12504;DHT22;6316;48.118;-1.690;2022-10-04T21:21:56;18.10;99.90
12504;DHT22;6316;48.118;-1.690;2022-10-04T21:27:29;18.10;99.90
12504;DHT22;6316;48.118;-1.690;2022-10-04T21:29:56;18.10;99.90
12504;DHT22;6316;48.118;-1.690;2022-10-04T21:32:23;18.10;99.90
12504;DHT22;6316;48.118;-1.690;2022-10-04T21:34:50;18.10;99.90
12504;DHT22;6316;48.118;-1.690;2022-10-04T21:37:16;18.10;99.90
12504;DHT22;6316;48.118;-1.690;2022-10-04T21:39:42;18.10;99.90
12504;DHT22;6316;48.118;-1.690;2022-10-04T21:42:08;18.10;99.90
12504;DHT22;6316;48.118;-1.690;2022-10-04T21:44:33;18.10;99.90
12504;DHT22;6316;48.118;-1.690;2022-10-04T21:46:59;18.10;99.90
12504;DHT22;6316;48.118;-1.690;2022-10-04T21:49:25;18.00;99.90
12504;DHT22;6316;48.118;-1.690;2022-10-04T21:51:50;18.00;99.90
12504;DHT22;6316;48.118;-1.690;2022-10-04T21:54:16;18.00;99.90
12504;DHT22;6316;48.118;-1.690;2022-10-04T21:56:42;18.00;99.90
12504;DHT22;6316;48.118;-1.690;2022-10-04T21:59:07;18.00;99.90
12504;DHT22;6316;48.118;-1.690;2022-10-04T22:01:33;18.00;99.90
12504;DHT22;6316;48.118;-1.690;2022-10-04T22:03:59;18.00;99.90
12504;DHT22;6316;48.118;-1.690;2022-10-04T22:06:24;17.90;99.90
12504;DHT22;6316;48.118;-1.690;2022-10-04T22:08:50;18.00;99.90
12504;DHT22;6316;48.118;-1.690;2022-10-04T22:11:16;17.90;99.90
12504;DHT22;6316;48.118;-1.690;2022-10-04T22:13:41;17.90;99.90
12504;DHT22;6316;48.118;-1.690;2022-10-04T22:16:07;17.90;99.90
12504;DHT22;6316;48.118;-1.690;2022-10-04T22:18:33;17.90;99.90
12504;DHT22;6316;48.118;-1.690;2022-10-04T22:20:59;17.90;99.90
12504;DHT22;6316;48.118;-1.690;2022-10-04T22:23:27;17.90;99.90
12504;DHT22;6316;48.118;-1.690;2022-10-04T22:25:54;17.90;99.90
12504;DHT22;6316;48.118;-1.690;2022-10-04T22:28:25;17.80;99.90
12504;DHT22;6316;48.118;-1.690;2022-10-04T22:30:51;17.90;99.90
12504;DHT22;6316;48.118;-1.690;2022-10-04T22:35:54;17.80;99.90
12504;DHT22;6316;48.118;-1.690;2022-10-04T22:38:20;17.80;99.90
12504;DHT22;6316;48.118;-1.690;2022-10-04T22:40:45;17.80;99.90
12504;DHT22;6316;48.118;-1.690;2022-10-04T22:43:13;17.80;99.90
12504;DHT22;6316;48.118;-1.690;2022-10-04T22:45:39;17.80;99.90
12504;DHT22;6316;48.118;-1.690;2022-10-04T22:48:13;17.80;99.90
12504;DHT22;6316;48.118;-1.690;2022-10-04T22:50:39;17.80;99.90
12504;DHT22;6316;48.118;-1.690;2022-10-04T22:53:15;17.80;99.90
12504;DHT22;6316;48.118;-1.690;2022-10-04T22:55:41;17.70;99.90
12504;DHT22;6316;48.118;-1.690;2022-10-04T22:58:12;17.70;99.90
12504;DHT22;6316;48.118;-1.690;2022-10-04T23:00:38;17.70;99.90
12504;DHT22;6316;48.118;-1.690;2022-10-04T23:03:28;17.70;99.90
12504;DHT22;6316;48.118;-1.690;2022-10-04T23:05:56;17.60;99.90
12504;DHT22;6316;48.118;-1.690;2022-10-04T23:08:22;17.60;99.90
12504;DHT22;6316;48.118;-1.690;2022-10-04T23:10:55;17.60;99.90
12504;DHT22;6316;48.118;-1.690;2022-10-04T23:13:22;17.60;99.90
12504;DHT22;6316;48.118;-1.690;2022-10-04T23:15:48;17.60;99.90
12504;DHT22;6316;48.118;-1.690;2022-10-04T23:18:15;17.60;99.90
12504;DHT22;6316;48.118;-1.690;2022-10-04T23:20:42;17.60;99.90
12504;DHT22;6316;48.118;-1.690;2022-10-04T23:23:13;17.60;99.90
12504;DHT22;6316;48.118;-1.690;2022-10-04T23:25:46;17.60;99.90
12504;DHT22;6316;48.118;-1.690;2022-10-04T23:28:14;17.60;99.90
12504;DHT22;6316;48.118;-1.690;2022-10-04T23:30:41;17.50;99.90
12504;DHT22;6316;48.118;-1.690;2022-10-04T23:33:17;17.60;99.90
12504;DHT22;6316;48.118;-1.690;2022-10-04T23:35:44;17.60;99.90
12504;DHT22;6316;48.118;-1.690;2022-10-04T23:38:18;17.60;99.90
12504;DHT22;6316;48.118;-1.690;2022-10-04T23:40:44;17.50;99.90
12504;DHT22;6316;48.118;-1.690;2022-10-04T23:43:22;17.60;99.90
12504;DHT22;6316;48.118;-1.690;2022-10-04T23:45:51;17.60;99.90
12504;DHT22;6316;48.118;-1.690;2022-10-04T23:48:21;17.60;99.90
12504;DHT22;6316;48.118;-1.690;2022-10-04T23:50:49;17.60;99.90
12504;DHT22;6316;48.118;-1.690;2022-10-04T23:53:29;17.60;99.90
12504;DHT22;6316;48.118;-1.690;2022-10-04T23:55:58;17.60;99.90
12504;DHT22;6316;48.118;-1.690;2022-10-04T23:58:30;17.60;99.90
